sensor_id;sensor_type;location;lat;lon;timestamp;pressure;altitude;pressure_sealevel;temperature;humidity
81005;BME280;70472;47.592;17.640;2023-11-18T00:00:03;100012.72;;;5.63;67.17
81005;BME280;70472;47.592;17.640;2023-11-18T00:00:37;100013.94;;;5.69;67.45
81005;BME280;70472;47.592;17.640;2023-11-18T00:01:09;100003.03;;;5.72;67.08
81005;BME280;70472;47.592;17.640;2023-11-18T00:01:42;100009.31;;;5.61;68.10
81005;BME280;70472;47.592;17.640;2023-11-18T00:02:14;100008.34;;;5.62;67.07
81005;BME280;70472;47.592;17.640;2023-11-18T00:02:47;100019.56;;;5.66;67.54
81005;BME280;70472;47.592;17.640;2023-11-18T00:03:20;100013.09;;;5.69;68.22
81005;BME280;70472;47.592;17.640;2023-11-18T00:03:53;100017.75;;;5.67;68.72
81005;BME280;70472;47.592;17.640;2023-11-18T00:04:25;100019.56;;;5.66;68.34
81005;BME280;70472;47.592;17.640;2023-11-18T00:04:58;100019.81;;;5.63;68.78
81005;BME280;70472;47.592;17.640;2023-11-18T00:05:30;100014.25;;;5.66;68.03
81005;BME280;70472;47.592;17.640;2023-11-18T00:06:04;100020.94;;;5.60;68.44
81005;BME280;70472;47.592;17.640;2023-11-18T00:06:37;100016.03;;;5.56;68.66
81005;BME280;70472;47.592;17.640;2023-11-18T00:07:10;100021.50;;;5.54;68.13
81005;BME280;70472;47.592;17.640;2023-11-18T00:07:43;100018.44;;;5.59;68.25
81005;BME280;70472;47.592;17.640;2023-11-18T00:08:15;100026.13;;;5.62;67.70
81005;BME280;70472;47.592;17.640;2023-11-18T00:08:48;100021.25;;;5.57;67.81
81005;BME280;70472;47.592;17.640;2023-11-18T00:09:21;100016.44;;;5.51;68.54
81005;BME280;70472;47.592;17.640;2023-11-18T00:09:53;100024.41;;;5.51;68.70
81005;BME280;70472;47.592;17.640;2023-11-18T00:10:26;100027.38;;;5.48;67.57
81005;BME280;70472;47.592;17.640;2023-11-18T00:10:59;100019.09;;;5.51;68.27
81005;BME280;70472;47.592;17.640;2023-11-18T00:11:31;100027.22;;;5.50;67.28
81005;BME280;70472;47.592;17.640;2023-11-18T00:12:05;100024.31;;;5.53;67.54
81005;BME280;70472;47.592;17.640;2023-11-18T00:12:38;100023.56;;;5.41;67.50
81005;BME280;70472;47.592;17.640;2023-11-18T00:13:11;100026.25;;;5.51;68.12
81005;BME280;70472;47.592;17.640;2023-11-18T00:13:44;100024.56;;;5.50;67.58
81005;BME280;70472;47.592;17.640;2023-11-18T00:14:17;100019.97;;;5.52;68.07
81005;BME280;70472;47.592;17.640;2023-11-18T00:14:50;100013.66;;;5.53;68.37
81005;BME280;70472;47.592;17.640;2023-11-18T00:15:22;100018.69;;;5.46;67.28
81005;BME280;70472;47.592;17.640;2023-11-18T00:15:56;100023.72;;;5.49;67.83
81005;BME280;70472;47.592;17.640;2023-11-18T00:16:28;100018.53;;;5.48;68.29
81005;BME280;70472;47.592;17.640;2023-11-18T00:17:01;100026.09;;;5.43;68.46
81005;BME280;70472;47.592;17.640;2023-11-18T00:17:34;100019.78;;;5.44;67.68
81005;BME280;70472;47.592;17.640;2023-11-18T00:18:06;100025.69;;;5.47;67.79
81005;BME280;70472;47.592;17.640;2023-11-18T00:18:39;100019.63;;;5.45;68.64
81005;BME280;70472;47.592;17.640;2023-11-18T00:19:12;100020.63;;;5.44;68.02
81005;BME280;70472;47.592;17.640;2023-11-18T00:19:45;100019.53;;;5.47;67.81
81005;BME280;70472;47.592;17.640;2023-11-18T00:20:17;100023.72;;;5.49;67.67
81005;BME280;70472;47.592;17.640;2023-11-18T00:20:50;100030.44;;;5.44;67.92
81005;BME280;70472;47.592;17.640;2023-11-18T00:21:23;100023.00;;;5.38;67.72
81005;BME280;70472;47.592;17.640;2023-11-18T00:21:55;100026.38;;;5.40;67.76
81005;BME280;70472;47.592;17.640;2023-11-18T00:22:28;100028.16;;;5.39;67.64
81005;BME280;70472;47.592;17.640;2023-11-18T00:23:01;100024.66;;;5.39;68.45
81005;BME280;70472;47.592;17.640;2023-11-18T00:23:36;100015.75;;;5.40;68.56
81005;BME280;70472;47.592;17.640;2023-11-18T00:24:09;100031.25;;;5.34;67.90
81005;BME280;70472;47.592;17.640;2023-11-18T00:24:41;100029.16;;;5.38;68.56
81005;BME280;70472;47.592;17.640;2023-11-18T00:25:14;100022.72;;;5.41;68.06
81005;BME280;70472;47.592;17.640;2023-11-18T00:25:47;100033.47;;;5.39;68.07
81005;BME280;70472;47.592;17.640;2023-11-18T00:26:19;100024.66;;;5.39;68.38
81005;BME280;70472;47.592;17.640;2023-11-18T00:26:54;100028.75;;;5.43;68.44
81005;BME280;70472;47.592;17.640;2023-11-18T00:27:26;100034.34;;;5.40;68.67
81005;BME280;70472;47.592;17.640;2023-11-18T00:28:00;100030.72;;;5.41;68.28
81005;BME280;70472;47.592;17.640;2023-11-18T00:28:33;100034.06;;;5.43;68.69
81005;BME280;70472;47.592;17.640;2023-11-18T00:29:05;100029.88;;;5.40;67.95
81005;BME280;70472;47.592;17.640;2023-11-18T00:29:38;100031.56;;;5.41;68.77
81005;BME280;70472;47.592;17.640;2023-11-18T00:30:11;100032.66;;;5.39;68.73
81005;BME280;70472;47.592;17.640;2023-11-18T00:30:44;100038.81;;;5.39;68.33
81005;BME280;70472;47.592;17.640;2023-11-18T00:31:16;100036.88;;;5.41;68.96
81005;BME280;70472;47.592;17.640;2023-11-18T00:31:49;100031.25;;;5.34;68.18
81005;BME280;70472;47.592;17.640;2023-11-18T00:32:22;100032.66;;;5.39;67.97
81005;BME280;70472;47.592;17.640;2023-11-18T00:32:54;100041.59;;;5.38;68.45
81005;BME280;70472;47.592;17.640;2023-11-18T00:33:27;100039.69;;;5.40;69.58
81005;BME280;70472;47.592;17.640;2023-11-18T00:33:59;100040.47;;;5.30;69.05
81005;BME280;70472;47.592;17.640;2023-11-18T00:34:35;100032.34;;;5.32;69.51
81005;BME280;70472;47.592;17.640;2023-11-18T00:35:08;100038.78;;;5.29;68.41
81005;BME280;70472;47.592;17.640;2023-11-18T00:35:41;100035.16;;;5.30;68.03
81005;BME280;70472;47.592;17.640;2023-11-18T00:36:13;100036.69;;;5.33;67.82
81005;BME280;70472;47.592;17.640;2023-11-18T00:36:46;100038.94;;;5.38;67.86
81005;BME280;70472;47.592;17.640;2023-11-18T00:37:18;100038.50;;;5.32;68.04
81005;BME280;70472;47.592;17.640;2023-11-18T00:37:51;100039.94;;;5.36;68.23
81005;BME280;70472;47.592;17.640;2023-11-18T00:38:23;100037.97;;;5.39;68.19
81005;BME280;70472;47.592;17.640;2023-11-18T00:38:56;100039.38;;;5.43;69.36
81005;BME280;70472;47.592;17.640;2023-11-18T00:39:28;100036.56;;;5.34;67.81
81005;BME280;70472;47.592;17.640;2023-11-18T00:40:01;100035.59;;;5.35;67.36
81005;BME280;70472;47.592;17.640;2023-11-18T00:40:33;100038.94;;;5.38;68.05
81005;BME280;70472;47.592;17.640;2023-11-18T00:41:07;100037.28;;;5.36;68.42
81005;BME280;70472;47.592;17.640;2023-11-18T00:41:39;100043.00;;;5.32;67.38
81005;BME280;70472;47.592;17.640;2023-11-18T00:42:11;100042.84;;;5.33;68.16
81005;BME280;70472;47.592;17.640;2023-11-18T00:42:45;100043.56;;;5.35;67.99
81005;BME280;70472;47.592;17.640;2023-11-18T00:43:17;100038.25;;;5.35;68.28
81005;BME280;70472;47.592;17.640;2023-11-18T00:43:50;100039.94;;;5.36;67.82
81005;BME280;70472;47.592;17.640;2023-11-18T00:44:22;100042.44;;;5.38;69.40
81005;BME280;70472;47.592;17.640;2023-11-18T00:44:55;100037.53;;;5.33;68.87
81005;BME280;70472;47.592;17.640;2023-11-18T00:45:28;100039.63;;;5.30;68.10
81005;BME280;70472;47.592;17.640;2023-11-18T00:46:03;100038.06;;;5.27;69.96
81005;BME280;70472;47.592;17.640;2023-11-18T00:46:35;100043.13;;;5.30;69.11
81005;BME280;70472;47.592;17.640;2023-11-18T00:47:08;100042.44;;;5.28;69.09
81005;BME280;70472;47.592;17.640;2023-11-18T00:47:41;100042.44;;;5.28;68.46
81005;BME280;70472;47.592;17.640;2023-11-18T00:48:13;100039.06;;;5.26;69.31
81005;BME280;70472;47.592;17.640;2023-11-18T00:48:46;100039.06;;;5.26;68.59
81005;BME280;70472;47.592;17.640;2023-11-18T00:49:18;100037.81;;;5.30;69.53
81005;BME280;70472;47.592;17.640;2023-11-18T00:49:51;100041.31;;;5.31;69.36
81005;BME280;70472;47.592;17.640;2023-11-18T00:50:24;100035.16;;;5.30;68.90
81005;BME280;70472;47.592;17.640;2023-11-18T00:50:56;100037.22;;;5.27;69.32
81005;BME280;70472;47.592;17.640;2023-11-18T00:51:29;100034.16;;;5.31;69.42
81005;BME280;70472;47.592;17.640;2023-11-18T00:52:02;100037.13;;;5.28;68.89
81005;BME280;70472;47.592;17.640;2023-11-18T00:52:35;100037.22;;;5.27;68.55
81005;BME280;70472;47.592;17.640;2023-11-18T00:53:08;100036.38;;;5.26;69.24
81005;BME280;70472;47.592;17.640;2023-11-18T00:53:40;100035.56;;;5.26;69.25
81005;BME280;70472;47.592;17.640;2023-11-18T00:54:14;100036.53;;;5.25;69.26
81005;BME280;70472;47.592;17.640;2023-11-18T00:54:47;100039.59;;;5.20;69.72
81005;BME280;70472;47.592;17.640;2023-11-18T00:55:19;100032.72;;;5.18;69.61
81005;BME280;70472;47.592;17.640;2023-11-18T00:55:52;100036.22;;;5.18;69.19
81005;BME280;70472;47.592;17.640;2023-11-18T00:56:25;100041.09;;;5.13;69.68
81005;BME280;70472;47.592;17.640;2023-11-18T00:56:58;100034.56;;;5.17;69.67
81005;BME280;70472;47.592;17.640;2023-11-18T00:57:30;100041.25;;;5.21;69.40
81005;BME280;70472;47.592;17.640;2023-11-18T00:58:03;100042.25;;;5.20;69.13
81005;BME280;70472;47.592;17.640;2023-11-18T00:58:35;100040.56;;;5.19;69.93
81005;BME280;70472;47.592;17.640;2023-11-18T00:59:08;100050.38;;;5.19;69.75
81005;BME280;70472;47.592;17.640;2023-11-18T00:59:42;100053.88;;;5.19;69.15
81005;BME280;70472;47.592;17.640;2023-11-18T01:00:16;100046.88;;;5.18;68.97
81005;BME280;70472;47.592;17.640;2023-11-18T01:00:49;100046.72;;;5.20;69.33
81005;BME280;70472;47.592;17.640;2023-11-18T01:01:21;100053.03;;;5.19;69.76
81005;BME280;70472;47.592;17.640;2023-11-18T01:01:54;100048.41;;;5.21;69.78
81005;BME280;70472;47.592;17.640;2023-11-18T01:02:26;100044.91;;;5.20;69.15
81005;BME280;70472;47.592;17.640;2023-11-18T01:02:59;100038.59;;;5.21;69.39
81005;BME280;70472;47.592;17.640;2023-11-18T01:03:32;100049.25;;;5.21;69.18
81005;BME280;70472;47.592;17.640;2023-11-18T01:04:05;100044.91;;;5.20;70.46
81005;BME280;70472;47.592;17.640;2023-11-18T01:04:37;100047.16;;;5.25;69.87
81005;BME280;70472;47.592;17.640;2023-11-18T01:05:10;100051.38;;;5.27;70.24
81005;BME280;70472;47.592;17.640;2023-11-18T01:05:42;100042.84;;;5.24;70.24
81005;BME280;70472;47.592;17.640;2023-11-18T01:06:15;100050.22;;;5.20;70.17
81005;BME280;70472;47.592;17.640;2023-11-18T01:06:48;100043.22;;;5.19;69.86
81005;BME280;70472;47.592;17.640;2023-11-18T01:07:20;100052.63;;;5.23;70.35
81005;BME280;70472;47.592;17.640;2023-11-18T01:07:53;100051.06;;;5.21;69.35
81005;BME280;70472;47.592;17.640;2023-11-18T01:08:26;100051.38;;;5.27;69.26
81005;BME280;70472;47.592;17.640;2023-11-18T01:08:58;100051.13;;;5.30;70.21
81005;BME280;70472;47.592;17.640;2023-11-18T01:09:31;100054.75;;;5.29;69.61
81005;BME280;70472;47.592;17.640;2023-11-18T01:10:05;100048.69;;;5.27;70.37
81005;BME280;70472;47.592;17.640;2023-11-18T01:10:38;100041.72;;;5.26;69.46
81005;BME280;70472;47.592;17.640;2023-11-18T01:11:15;100042.44;;;5.28;69.72
81005;BME280;70472;47.592;17.640;2023-11-18T01:11:47;100041.47;;;5.29;69.63
81005;BME280;70472;47.592;17.640;2023-11-18T01:12:22;100041.72;;;5.26;70.01
81005;BME280;70472;47.592;17.640;2023-11-18T01:12:54;100045.22;;;5.27;69.26
81005;BME280;70472;47.592;17.640;2023-11-18T01:13:27;100040.72;;;5.27;70.25
81005;BME280;70472;47.592;17.640;2023-11-18T01:13:59;100048.59;;;5.29;69.68
81005;BME280;70472;47.592;17.640;2023-11-18T01:14:32;100045.22;;;5.27;70.17
81005;BME280;70472;47.592;17.640;2023-11-18T01:15:06;100038.22;;;5.26;69.26
81005;BME280;70472;47.592;17.640;2023-11-18T01:15:38;100044.13;;;5.29;70.09
81005;BME280;70472;47.592;17.640;2023-11-18T01:16:11;100045.19;;;5.17;70.61
81005;BME280;70472;47.592;17.640;2023-11-18T01:16:44;100044.91;;;5.20;69.85
81005;BME280;70472;47.592;17.640;2023-11-18T01:17:17;100041.25;;;5.21;69.15
81005;BME280;70472;47.592;17.640;2023-11-18T01:17:50;100039.59;;;5.20;69.80
81005;BME280;70472;47.592;17.640;2023-11-18T01:18:22;100042.25;;;5.20;68.76
81005;BME280;70472;47.592;17.640;2023-11-18T01:18:55;100036.22;;;5.18;68.37
81005;BME280;70472;47.592;17.640;2023-11-18T01:19:28;100038.50;;;5.23;68.71
81005;BME280;70472;47.592;17.640;2023-11-18T01:20:00;100035.69;;;5.24;69.30
81005;BME280;70472;47.592;17.640;2023-11-18T01:20:33;100039.88;;;5.27;69.48
81005;BME280;70472;47.592;17.640;2023-11-18T01:21:06;100046.34;;;5.24;69.73
81005;BME280;70472;47.592;17.640;2023-11-18T01:21:38;100045.22;;;5.27;69.44
81005;BME280;70472;47.592;17.640;2023-11-18T01:22:11;100043.38;;;5.27;69.43
81005;BME280;70472;47.592;17.640;2023-11-18T01:22:44;100044.06;;;5.20;69.23
81005;BME280;70472;47.592;17.640;2023-11-18T01:23:16;100042.53;;;5.17;69.68
81005;BME280;70472;47.592;17.640;2023-11-18T01:23:49;100037.06;;;5.19;68.48
81005;BME280;70472;47.592;17.640;2023-11-18T01:24:22;100036.09;;;5.20;69.09
81005;BME280;70472;47.592;17.640;2023-11-18T01:24:55;100034.00;;;5.23;69.02
81005;BME280;70472;47.592;17.640;2023-11-18T01:25:27;100039.34;;;5.23;69.46
81005;BME280;70472;47.592;17.640;2023-11-18T01:26:00;100039.06;;;5.26;69.18
81005;BME280;70472;47.592;17.640;2023-11-18T01:26:33;100038.94;;;5.28;68.79
81005;BME280;70472;47.592;17.640;2023-11-18T01:27:05;100032.34;;;5.22;69.49
81005;BME280;70472;47.592;17.640;2023-11-18T01:27:38;100038.50;;;5.23;69.79
81005;BME280;70472;47.592;17.640;2023-11-18T01:28:10;100033.28;;;5.21;69.52
81005;BME280;70472;47.592;17.640;2023-11-18T01:28:43;100027.97;;;5.21;69.85
81005;BME280;70472;47.592;17.640;2023-11-18T01:29:16;100030.63;;;5.21;69.36
81005;BME280;70472;47.592;17.640;2023-11-18T01:29:49;100029.09;;;5.19;69.56
81005;BME280;70472;47.592;17.640;2023-11-18T01:30:22;100028.94;;;5.20;69.37
81005;BME280;70472;47.592;17.640;2023-11-18T01:30:54;100038.34;;;5.24;68.85
81005;BME280;70472;47.592;17.640;2023-11-18T01:31:27;100028.69;;;5.23;68.96
81005;BME280;70472;47.592;17.640;2023-11-18T01:32:06;100034.56;;;5.27;69.37
81005;BME280;70472;47.592;17.640;2023-11-18T01:32:38;100027.56;;;5.26;69.82
81005;BME280;70472;47.592;17.640;2023-11-18T01:33:11;100035.00;;;5.22;70.35
81005;BME280;70472;47.592;17.640;2023-11-18T01:33:43;100041.00;;;5.24;68.43
81005;BME280;70472;47.592;17.640;2023-11-18T01:34:16;100029.13;;;5.28;69.32
81005;BME280;70472;47.592;17.640;2023-11-18T01:34:48;100036.97;;;5.30;67.96
81005;BME280;70472;47.592;17.640;2023-11-18T01:35:21;100034.56;;;5.27;67.93
81005;BME280;70472;47.592;17.640;2023-11-18T01:35:54;100035.41;;;5.27;67.73
81005;BME280;70472;47.592;17.640;2023-11-18T01:36:26;100035.41;;;5.27;68.82
81005;BME280;70472;47.592;17.640;2023-11-18T01:36:59;100034.47;;;5.28;68.77
81005;BME280;70472;47.592;17.640;2023-11-18T01:37:31;100036.84;;;5.31;67.92
81005;BME280;70472;47.592;17.640;2023-11-18T01:38:05;100040.06;;;5.35;68.65
81005;BME280;70472;47.592;17.640;2023-11-18T01:38:38;100035.59;;;5.35;68.09
81005;BME280;70472;47.592;17.640;2023-11-18T01:39:11;100028.72;;;5.33;68.28
81005;BME280;70472;47.592;17.640;2023-11-18T01:39:43;100037.66;;;5.32;68.01
81005;BME280;70472;47.592;17.640;2023-11-18T01:40:16;100034.16;;;5.31;68.62
81005;BME280;70472;47.592;17.640;2023-11-18T01:40:49;100038.41;;;5.34;69.07
81005;BME280;70472;47.592;17.640;2023-11-18T01:41:24;100035.00;;;5.32;68.05
81005;BME280;70472;47.592;17.640;2023-11-18T01:41:57;100036.00;;;5.31;67.58
81005;BME280;70472;47.592;17.640;2023-11-18T01:42:30;100032.09;;;5.35;68.25
81005;BME280;70472;47.592;17.640;2023-11-18T01:43:03;100033.63;;;5.38;68.41
81005;BME280;70472;47.592;17.640;2023-11-18T01:43:35;100042.19;;;5.41;68.37
81005;BME280;70472;47.592;17.640;2023-11-18T01:44:08;100025.41;;;5.41;68.66
81005;BME280;70472;47.592;17.640;2023-11-18T01:44:40;100036.28;;;5.38;68.63
81005;BME280;70472;47.592;17.640;2023-11-18T01:45:13;100043.28;;;5.39;67.94
81005;BME280;70472;47.592;17.640;2023-11-18T01:45:46;100030.41;;;5.34;68.64
81005;BME280;70472;47.592;17.640;2023-11-18T01:46:19;100039.09;;;5.36;68.47
81005;BME280;70472;47.592;17.640;2023-11-18T01:46:52;100040.50;;;5.40;67.89
81005;BME280;70472;47.592;17.640;2023-11-18T01:47:26;100036.16;;;5.39;68.56
81005;BME280;70472;47.592;17.640;2023-11-18T01:47:59;100038.25;;;5.35;68.55
81005;BME280;70472;47.592;17.640;2023-11-18T01:48:32;100039.25;;;5.34;68.06
81005;BME280;70472;47.592;17.640;2023-11-18T01:49:05;100039.78;;;5.38;68.03
81005;BME280;70472;47.592;17.640;2023-11-18T01:49:39;100041.59;;;5.38;68.11
81005;BME280;70472;47.592;17.640;2023-11-18T01:50:14;100039.78;;;5.38;68.74
81005;BME280;70472;47.592;17.640;2023-11-18T01:50:47;100045.00;;;5.40;69.04
81005;BME280;70472;47.592;17.640;2023-11-18T01:51:21;100036.28;;;5.38;68.39
81005;BME280;70472;47.592;17.640;2023-11-18T01:51:54;100039.94;;;5.36;68.48
81005;BME280;70472;47.592;17.640;2023-11-18T01:52:28;100035.59;;;5.35;68.50
81005;BME280;70472;47.592;17.640;2023-11-18T01:53:00;100035.16;;;5.30;68.48
81005;BME280;70472;47.592;17.640;2023-11-18T01:53:37;100031.94;;;5.36;69.18
81005;BME280;70472;47.592;17.640;2023-11-18T01:54:12;100044.41;;;5.36;69.04
81005;BME280;70472;47.592;17.640;2023-11-18T01:54:45;100041.59;;;5.38;69.46
81005;BME280;70472;47.592;17.640;2023-11-18T01:55:18;100033.63;;;5.38;69.12
81005;BME280;70472;47.592;17.640;2023-11-18T01:55:51;100033.91;;;5.34;68.58
81005;BME280;70472;47.592;17.640;2023-11-18T01:56:23;100035.19;;;5.40;70.21
81005;BME280;70472;47.592;17.640;2023-11-18T01:56:56;100038.25;;;5.45;69.60
81005;BME280;70472;47.592;17.640;2023-11-18T01:57:30;100042.50;;;5.48;71.03
81005;BME280;70472;47.592;17.640;2023-11-18T01:58:03;100037.72;;;5.51;70.81
81005;BME280;70472;47.592;17.640;2023-11-18T01:58:36;100038.84;;;5.49;70.99
81005;BME280;70472;47.592;17.640;2023-11-18T01:59:09;100029.28;;;5.36;69.62
81005;BME280;70472;47.592;17.640;2023-11-18T01:59:42;100038.81;;;5.39;68.88
81005;BME280;70472;47.592;17.640;2023-11-18T02:00:15;100035.88;;;5.42;69.35
81005;BME280;70472;47.592;17.640;2023-11-18T02:00:47;100032.09;;;5.45;69.81
81005;BME280;70472;47.592;17.640;2023-11-18T02:01:20;100038.84;;;5.49;69.89
81005;BME280;70472;47.592;17.640;2023-11-18T02:01:53;100037.16;;;5.48;69.91
81005;BME280;70472;47.592;17.640;2023-11-18T02:02:26;100028.50;;;5.46;69.73
81005;BME280;70472;47.592;17.640;2023-11-18T02:02:59;100035.50;;;5.47;69.44
81005;BME280;70472;47.592;17.640;2023-11-18T02:03:32;100032.09;;;5.45;69.71
81005;BME280;70472;47.592;17.640;2023-11-18T02:04:04;100025.53;;;5.49;70.68
81005;BME280;70472;47.592;17.640;2023-11-18T02:04:37;100029.03;;;5.49;70.47
81005;BME280;70472;47.592;17.640;2023-11-18T02:05:10;100012.94;;;5.51;70.89
81005;BME280;70472;47.592;17.640;2023-11-18T02:05:42;100020.50;;;5.46;69.27
81005;BME280;70472;47.592;17.640;2023-11-18T02:06:15;100015.31;;;5.44;69.75
81005;BME280;70472;47.592;17.640;2023-11-18T02:06:49;100029.16;;;5.38;68.66
81005;BME280;70472;47.592;17.640;2023-11-18T02:07:22;100027.31;;;5.39;68.75
81005;BME280;70472;47.592;17.640;2023-11-18T02:07:55;100022.00;;;5.39;69.09
81005;BME280;70472;47.592;17.640;2023-11-18T02:08:27;100037.44;;;5.45;69.84
81005;BME280;70472;47.592;17.640;2023-11-18T02:09:00;100036.59;;;5.44;69.70
81005;BME280;70472;47.592;17.640;2023-11-18T02:09:33;100037.44;;;5.45;69.13
81005;BME280;70472;47.592;17.640;2023-11-18T02:10:06;100030.56;;;5.42;69.46
81005;BME280;70472;47.592;17.640;2023-11-18T02:10:48;100052.44;;;5.46;69.41
81005;BME280;70472;47.592;17.640;2023-11-18T02:11:36;100036.72;;;5.43;70.12
81005;BME280;70472;47.592;17.640;2023-11-18T02:13:26;100044.00;;;5.41;68.23
81005;BME280;70472;47.592;17.640;2023-11-18T02:14:01;100042.44;;;5.38;68.11
81005;BME280;70472;47.592;17.640;2023-11-18T02:14:35;100039.94;;;5.36;68.07
81005;BME280;70472;47.592;17.640;2023-11-18T02:15:12;100043.72;;;5.34;67.52
81005;BME280;70472;47.592;17.640;2023-11-18T02:15:47;100041.47;;;5.29;68.13
81005;BME280;70472;47.592;17.640;2023-11-18T02:16:21;100040.47;;;5.30;68.75
81005;BME280;70472;47.592;17.640;2023-11-18T02:16:58;100037.38;;;5.25;68.02
81005;BME280;70472;47.592;17.640;2023-11-18T02:17:33;100042.44;;;5.28;67.99
81005;BME280;70472;47.592;17.640;2023-11-18T02:18:08;100050.41;;;5.28;68.56
81005;BME280;70472;47.592;17.640;2023-11-18T02:18:42;100046.34;;;5.24;68.35
81005;BME280;70472;47.592;17.640;2023-11-18T02:19:23;100044.66;;;5.23;68.40
81005;BME280;70472;47.592;17.640;2023-11-18T02:19:57;100043.81;;;5.23;67.94
81005;BME280;70472;47.592;17.640;2023-11-18T02:20:31;100039.03;;;5.17;67.94
81005;BME280;70472;47.592;17.640;2023-11-18T02:21:07;100052.19;;;5.18;68.22
81005;BME280;70472;47.592;17.640;2023-11-18T02:21:44;100046.03;;;5.18;68.51
81005;BME280;70472;47.592;17.640;2023-11-18T02:22:17;100048.53;;;5.19;69.27
81005;BME280;70472;47.592;17.640;2023-11-18T02:22:50;100048.81;;;5.16;68.71
81005;BME280;70472;47.592;17.640;2023-11-18T02:23:27;100064.06;;;5.14;68.50
81005;BME280;70472;47.592;17.640;2023-11-18T02:24:00;100055.09;;;5.15;68.99
81005;BME280;70472;47.592;17.640;2023-11-18T02:24:33;100054.97;;;5.17;69.30
81005;BME280;70472;47.592;17.640;2023-11-18T02:25:09;100052.03;;;5.10;68.94
81005;BME280;70472;47.592;17.640;2023-11-18T02:25:46;100059.41;;;5.06;68.63
81005;BME280;70472;47.592;17.640;2023-11-18T02:26:23;100062.75;;;5.08;68.96
81005;BME280;70472;47.592;17.640;2023-11-18T02:26:57;100064.44;;;5.09;69.32
81005;BME280;70472;47.592;17.640;2023-11-18T02:27:31;100074.53;;;5.06;69.54
81005;BME280;70472;47.592;17.640;2023-11-18T02:28:04;100074.22;;;4.99;69.64
81005;BME280;70472;47.592;17.640;2023-11-18T02:28:36;100071.13;;;5.04;69.52
81005;BME280;70472;47.592;17.640;2023-11-18T02:29:09;100061.47;;;5.03;69.80
81005;BME280;70472;47.592;17.640;2023-11-18T02:29:44;100073.78;;;5.04;69.99
81005;BME280;70472;47.592;17.640;2023-11-18T02:30:18;100071.56;;;4.99;69.96
81005;BME280;70472;47.592;17.640;2023-11-18T02:30:56;100071.56;;;4.99;70.04
81005;BME280;70472;47.592;17.640;2023-11-18T02:31:34;100071.41;;;5.01;69.75
81005;BME280;70472;47.592;17.640;2023-11-18T02:32:39;100065.41;;;4.99;70.58
81005;BME280;70472;47.592;17.640;2023-11-18T02:34:12;100081.03;;;4.92;70.21
81005;BME280;70472;47.592;17.640;2023-11-18T02:35:20;100079.63;;;4.98;70.21
81005;BME280;70472;47.592;17.640;2023-11-18T02:36:02;100082.19;;;4.99;69.81
81005;BME280;70472;47.592;17.640;2023-11-18T02:36:44;100086.22;;;4.94;69.35
81005;BME280;70472;47.592;17.640;2023-11-18T02:37:18;100078.47;;;4.91;70.46
81005;BME280;70472;47.592;17.640;2023-11-18T02:37:54;100080.31;;;4.90;70.01
81005;BME280;70472;47.592;17.640;2023-11-18T02:38:33;100082.56;;;4.95;70.63
81005;BME280;70472;47.592;17.640;2023-11-18T02:39:20;100078.09;;;4.95;69.87
81005;BME280;70472;47.592;17.640;2023-11-18T02:40:06;100085.38;;;4.93;70.26
81005;BME280;70472;47.592;17.640;2023-11-18T02:40:43;100084.91;;;4.88;70.29
81005;BME280;70472;47.592;17.640;2023-11-18T02:41:18;100086.47;;;4.91;70.01
81005;BME280;70472;47.592;17.640;2023-11-18T02:41:52;100078.88;;;4.86;69.63
81005;BME280;70472;47.592;17.640;2023-11-18T02:42:27;100081.13;;;4.91;70.38
81005;BME280;70472;47.592;17.640;2023-11-18T02:43:01;100087.19;;;4.93;70.64
81005;BME280;70472;47.592;17.640;2023-11-18T02:43:36;100089.56;;;4.96;70.51
81005;BME280;70472;47.592;17.640;2023-11-18T02:44:09;100084.41;;;4.94;70.37
81005;BME280;70472;47.592;17.640;2023-11-18T02:44:44;100093.72;;;4.89;70.88
81005;BME280;70472;47.592;17.640;2023-11-18T02:45:17;100089.97;;;4.91;70.75
81005;BME280;70472;47.592;17.640;2023-11-18T02:45:51;100095.28;;;4.91;70.18
81005;BME280;70472;47.592;17.640;2023-11-18T02:46:24;100091.78;;;4.91;70.74
81005;BME280;70472;47.592;17.640;2023-11-18T02:46:59;100085.75;;;4.89;71.41
81005;BME280;70472;47.592;17.640;2023-11-18T02:47:31;100090.09;;;4.90;70.88
81005;BME280;70472;47.592;17.640;2023-11-18T02:48:05;100093.59;;;4.90;70.57
81005;BME280;70472;47.592;17.640;2023-11-18T02:48:38;100096.25;;;4.90;70.52
81005;BME280;70472;47.592;17.640;2023-11-18T02:49:11;100096.63;;;4.86;70.82
81005;BME280;70472;47.592;17.640;2023-11-18T02:49:44;100092.28;;;4.85;70.69
81005;BME280;70472;47.592;17.640;2023-11-18T02:50:16;100095.09;;;4.83;70.83
81005;BME280;70472;47.592;17.640;2023-11-18T02:50:49;100094.97;;;4.85;70.91
81005;BME280;70472;47.592;17.640;2023-11-18T02:51:22;100093.97;;;4.86;71.07
81005;BME280;70472;47.592;17.640;2023-11-18T02:51:54;100099.28;;;4.86;70.77
81005;BME280;70472;47.592;17.640;2023-11-18T02:52:27;100095.22;;;4.81;71.63
81005;BME280;70472;47.592;17.640;2023-11-18T02:52:59;100100.28;;;4.85;71.10
81005;BME280;70472;47.592;17.640;2023-11-18T02:53:33;100092.44;;;4.83;71.25
81005;BME280;70472;47.592;17.640;2023-11-18T02:54:06;100096.78;;;4.84;70.73
81005;BME280;70472;47.592;17.640;2023-11-18T02:54:39;100105.44;;;4.86;71.00
81005;BME280;70472;47.592;17.640;2023-11-18T02:55:11;100097.63;;;4.85;71.14
81005;BME280;70472;47.592;17.640;2023-11-18T02:55:44;100099.28;;;4.86;71.42
81005;BME280;70472;47.592;17.640;2023-11-18T02:56:17;100103.53;;;4.88;71.57
81005;BME280;70472;47.592;17.640;2023-11-18T02:56:50;100097.63;;;4.85;70.90
81005;BME280;70472;47.592;17.640;2023-11-18T02:57:22;100100.88;;;4.88;71.55
81005;BME280;70472;47.592;17.640;2023-11-18T02:57:55;100097.63;;;4.85;71.45